Terminal Aerodrome Forecast
Issued by NWS Springfield, MO

Home | Current Version | Previous Version | Text Only | Print | Product List | Glossary On
Versions: 1 2 3 4 5 6 7 8 9 10 11 12 13 14 15 16 17 18 19 20 21 22 23 24 25
504
FTUS43 KSGF 231155 CCA
TAFSGF
TAF COR
KSGF 231155Z 2312/2412 23006KT P6SM SKC
     FM231600 24016G25KT P6SM SKC
     FM231930 30019G29KT P6SM FEW250
     FM240100 31013KT P6SM SKC WS020/32040KT=

USA.gov is the U.S. government's official web portal to all federal, state and local government web resources and services.